sensor_id;sensor_type;location;lat;lon;timestamp;P1;P2;P0
77699;PMS5003;66867;42.658;23.320;2023-08-20T00:00:00;23;21;
77699;PMS5003;66867;42.658;23.320;2023-08-20T00:01:04;20;20;
77699;PMS5003;66867;42.658;23.320;2023-08-20T00:02:01;25;24;
77699;PMS5003;66867;42.658;23.320;2023-08-20T00:03:04;20;18;
77699;PMS5003;66867;42.658;23.320;2023-08-20T00:04:00;22;21;
77699;PMS5003;66867;42.658;23.320;2023-08-20T00:05:01;25;25;
77699;PMS5003;66867;42.658;23.320;2023-08-20T00:06:00;21;21;
77699;PMS5003;66867;42.658;23.320;2023-08-20T00:07:00;19;18;
77699;PMS5003;66867;42.658;23.320;2023-08-20T00:08:00;19;19;
77699;PMS5003;66867;42.658;23.320;2023-08-20T00:09:00;23;22;
77699;PMS5003;66867;42.658;23.320;2023-08-20T00:10:01;17;17;
77699;PMS5003;66867;42.658;23.320;2023-08-20T00:11:00;19;19;
77699;PMS5003;66867;42.658;23.320;2023-08-20T00:12:00;20;19;
77699;PMS5003;66867;42.658;23.320;2023-08-20T00:13:00;22;21;
77699;PMS5003;66867;42.658;23.320;2023-08-20T00:14:00;19;19;
77699;PMS5003;66867;42.658;23.320;2023-08-20T00:15:03;23;22;
77699;PMS5003;66867;42.658;23.320;2023-08-20T00:16:00;22;22;
77699;PMS5003;66867;42.658;23.320;2023-08-20T00:17:00;21;21;
77699;PMS5003;66867;42.658;23.320;2023-08-20T00:18:00;22;22;
77699;PMS5003;66867;42.658;23.320;2023-08-20T00:19:00;21;21;
77699;PMS5003;66867;42.658;23.320;2023-08-20T00:20:01;21;21;
77699;PMS5003;66867;42.658;23.320;2023-08-20T00:21:00;25;24;
77699;PMS5003;66867;42.658;23.320;2023-08-20T00:22:00;23;21;
77699;PMS5003;66867;42.658;23.320;2023-08-20T00:23:00;26;24;
77699;PMS5003;66867;42.658;23.320;2023-08-20T00:24:00;19;19;
77699;PMS5003;66867;42.658;23.320;2023-08-20T00:25:00;20;20;
77699;PMS5003;66867;42.658;23.320;2023-08-20T00:26:01;22;20;
77699;PMS5003;66867;42.658;23.320;2023-08-20T00:27:00;21;21;
77699;PMS5003;66867;42.658;23.320;2023-08-20T00:28:00;22;22;
77699;PMS5003;66867;42.658;23.320;2023-08-20T00:29:00;23;23;
77699;PMS5003;66867;42.658;23.320;2023-08-20T00:30:00;23;23;
77699;PMS5003;66867;42.658;23.320;2023-08-20T00:31:00;21;19;
77699;PMS5003;66867;42.658;23.320;2023-08-20T00:32:00;22;21;
77699;PMS5003;66867;42.658;23.320;2023-08-20T00:33:00;24;22;
77699;PMS5003;66867;42.658;23.320;2023-08-20T00:34:00;20;20;
77699;PMS5003;66867;42.658;23.320;2023-08-20T00:35:00;24;23;
77699;PMS5003;66867;42.658;23.320;2023-08-20T00:36:00;22;22;
77699;PMS5003;66867;42.658;23.320;2023-08-20T00:37:00;23;23;
77699;PMS5003;66867;42.658;23.320;2023-08-20T00:38:00;22;22;
77699;PMS5003;66867;42.658;23.320;2023-08-20T00:39:00;29;27;
77699;PMS5003;66867;42.658;23.320;2023-08-20T00:40:01;26;26;
77699;PMS5003;66867;42.658;23.320;2023-08-20T00:41:00;24;24;
77699;PMS5003;66867;42.658;23.320;2023-08-20T00:42:00;24;24;
77699;PMS5003;66867;42.658;23.320;2023-08-20T00:43:00;24;22;
77699;PMS5003;66867;42.658;23.320;2023-08-20T00:44:00;23;22;
77699;PMS5003;66867;42.658;23.320;2023-08-20T00:45:00;24;23;
77699;PMS5003;66867;42.658;23.320;2023-08-20T00:46:00;24;23;
77699;PMS5003;66867;42.658;23.320;2023-08-20T00:47:01;29;27;
77699;PMS5003;66867;42.658;23.320;2023-08-20T00:48:00;24;23;
77699;PMS5003;66867;42.658;23.320;2023-08-20T00:49:00;23;22;
77699;PMS5003;66867;42.658;23.320;2023-08-20T00:50:01;26;24;
77699;PMS5003;66867;42.658;23.320;2023-08-20T00:51:00;23;23;
77699;PMS5003;66867;42.658;23.320;2023-08-20T00:52:01;27;26;
77699;PMS5003;66867;42.658;23.320;2023-08-20T00:53:00;23;23;
77699;PMS5003;66867;42.658;23.320;2023-08-20T00:54:02;23;23;
77699;PMS5003;66867;42.658;23.320;2023-08-20T00:55:03;28;27;
77699;PMS5003;66867;42.658;23.320;2023-08-20T00:56:00;26;25;
77699;PMS5003;66867;42.658;23.320;2023-08-20T00:57:01;23;22;
77699;PMS5003;66867;42.658;23.320;2023-08-20T00:58:00;28;26;
77699;PMS5003;66867;42.658;23.320;2023-08-20T00:59:00;26;25;
77699;PMS5003;66867;42.658;23.320;2023-08-20T01:00:00;31;29;
77699;PMS5003;66867;42.658;23.320;2023-08-20T01:01:00;31;28;
77699;PMS5003;66867;42.658;23.320;2023-08-20T01:02:00;25;24;
77699;PMS5003;66867;42.658;23.320;2023-08-20T01:03:00;28;27;
77699;PMS5003;66867;42.658;23.320;2023-08-20T01:04:00;29;28;
77699;PMS5003;66867;42.658;23.320;2023-08-20T01:05:01;28;28;
77699;PMS5003;66867;42.658;23.320;2023-08-20T01:06:14;27;26;
77699;PMS5003;66867;42.658;23.320;2023-08-20T01:07:20;27;26;
77699;PMS5003;66867;42.658;23.320;2023-08-20T01:08:11;25;25;
77699;PMS5003;66867;42.658;23.320;2023-08-20T01:09:05;28;24;
77699;PMS5003;66867;42.658;23.320;2023-08-20T01:10:19;25;25;
77699;PMS5003;66867;42.658;23.320;2023-08-20T01:11:08;23;23;
77699;PMS5003;66867;42.658;23.320;2023-08-20T01:12:02;29;27;
77699;PMS5003;66867;42.658;23.320;2023-08-20T01:13:00;29;25;
77699;PMS5003;66867;42.658;23.320;2023-08-20T01:14:00;24;23;
77699;PMS5003;66867;42.658;23.320;2023-08-20T01:15:00;25;25;
77699;PMS5003;66867;42.658;23.320;2023-08-20T01:16:00;27;27;
77699;PMS5003;66867;42.658;23.320;2023-08-20T01:17:00;25;25;
77699;PMS5003;66867;42.658;23.320;2023-08-20T01:18:00;25;25;
77699;PMS5003;66867;42.658;23.320;2023-08-20T01:19:00;25;24;
77699;PMS5003;66867;42.658;23.320;2023-08-20T01:20:00;28;27;
77699;PMS5003;66867;42.658;23.320;2023-08-20T01:21:04;27;25;
77699;PMS5003;66867;42.658;23.320;2023-08-20T01:26:07;31;30;
77699;PMS5003;66867;42.658;23.320;2023-08-20T01:27:10;33;31;
77699;PMS5003;66867;42.658;23.320;2023-08-20T01:28:26;35;31;
77699;PMS5003;66867;42.658;23.320;2023-08-20T01:29:00;41;36;
77699;PMS5003;66867;42.658;23.320;2023-08-20T01:30:01;34;32;
77699;PMS5003;66867;42.658;23.320;2023-08-20T01:31:00;39;33;
77699;PMS5003;66867;42.658;23.320;2023-08-20T01:32:00;36;33;
77699;PMS5003;66867;42.658;23.320;2023-08-20T01:33:01;37;33;
77699;PMS5003;66867;42.658;23.320;2023-08-20T01:34:01;36;33;
77699;PMS5003;66867;42.658;23.320;2023-08-20T01:35:00;35;32;
77699;PMS5003;66867;42.658;23.320;2023-08-20T01:36:00;35;32;
77699;PMS5003;66867;42.658;23.320;2023-08-20T01:37:00;40;33;
77699;PMS5003;66867;42.658;23.320;2023-08-20T01:38:00;32;30;
77699;PMS5003;66867;42.658;23.320;2023-08-20T01:39:00;32;31;
77699;PMS5003;66867;42.658;23.320;2023-08-20T01:40:00;31;30;
77699;PMS5003;66867;42.658;23.320;2023-08-20T01:41:00;36;32;
77699;PMS5003;66867;42.658;23.320;2023-08-20T01:42:00;36;32;
77699;PMS5003;66867;42.658;23.320;2023-08-20T01:43:00;32;31;
77699;PMS5003;66867;42.658;23.320;2023-08-20T01:44:00;30;30;
77699;PMS5003;66867;42.658;23.320;2023-08-20T01:45:00;31;29;
77699;PMS5003;66867;42.658;23.320;2023-08-20T01:46:00;27;27;
77699;PMS5003;66867;42.658;23.320;2023-08-20T01:47:00;30;29;
77699;PMS5003;66867;42.658;23.320;2023-08-20T01:48:00;32;30;
77699;PMS5003;66867;42.658;23.320;2023-08-20T01:49:00;29;28;
77699;PMS5003;66867;42.658;23.320;2023-08-20T01:50:01;33;31;
77699;PMS5003;66867;42.658;23.320;2023-08-20T01:51:00;27;26;
77699;PMS5003;66867;42.658;23.320;2023-08-20T01:52:00;29;29;
77699;PMS5003;66867;42.658;23.320;2023-08-20T01:53:01;28;28;
77699;PMS5003;66867;42.658;23.320;2023-08-20T01:54:00;27;26;
77699;PMS5003;66867;42.658;23.320;2023-08-20T01:55:00;30;29;
77699;PMS5003;66867;42.658;23.320;2023-08-20T01:56:00;27;27;
77699;PMS5003;66867;42.658;23.320;2023-08-20T01:57:00;27;27;
77699;PMS5003;66867;42.658;23.320;2023-08-20T01:58:00;31;30;
77699;PMS5003;66867;42.658;23.320;2023-08-20T01:59:00;28;27;
77699;PMS5003;66867;42.658;23.320;2023-08-20T02:00:00;30;27;
77699;PMS5003;66867;42.658;23.320;2023-08-20T02:01:00;25;25;
77699;PMS5003;66867;42.658;23.320;2023-08-20T02:02:00;31;29;
77699;PMS5003;66867;42.658;23.320;2023-08-20T02:03:00;27;27;
77699;PMS5003;66867;42.658;23.320;2023-08-20T02:04:00;30;29;
77699;PMS5003;66867;42.658;23.320;2023-08-20T02:05:00;25;25;
77699;PMS5003;66867;42.658;23.320;2023-08-20T02:06:00;29;28;
77699;PMS5003;66867;42.658;23.320;2023-08-20T02:07:00;33;31;
77699;PMS5003;66867;42.658;23.320;2023-08-20T02:08:00;30;30;
77699;PMS5003;66867;42.658;23.320;2023-08-20T02:09:00;29;27;
77699;PMS5003;66867;42.658;23.320;2023-08-20T02:10:00;29;28;
77699;PMS5003;66867;42.658;23.320;2023-08-20T02:11:02;23;23;
77699;PMS5003;66867;42.658;23.320;2023-08-20T02:12:00;29;28;
77699;PMS5003;66867;42.658;23.320;2023-08-20T02:13:00;31;30;
77699;PMS5003;66867;42.658;23.320;2023-08-20T02:14:00;23;23;
77699;PMS5003;66867;42.658;23.320;2023-08-20T02:15:00;25;24;
77699;PMS5003;66867;42.658;23.320;2023-08-20T02:16:01;24;24;
77699;PMS5003;66867;42.658;23.320;2023-08-20T02:17:01;25;25;
77699;PMS5003;66867;42.658;23.320;2023-08-20T02:18:00;26;26;
77699;PMS5003;66867;42.658;23.320;2023-08-20T02:19:00;29;27;
77699;PMS5003;66867;42.658;23.320;2023-08-20T02:20:00;30;30;
77699;PMS5003;66867;42.658;23.320;2023-08-20T02:21:00;30;29;
77699;PMS5003;66867;42.658;23.320;2023-08-20T02:22:00;26;26;
77699;PMS5003;66867;42.658;23.320;2023-08-20T02:23:00;29;28;
77699;PMS5003;66867;42.658;23.320;2023-08-20T02:24:00;27;27;
77699;PMS5003;66867;42.658;23.320;2023-08-20T02:25:00;30;30;
77699;PMS5003;66867;42.658;23.320;2023-08-20T02:26:00;29;29;
77699;PMS5003;66867;42.658;23.320;2023-08-20T02:27:00;29;29;
77699;PMS5003;66867;42.658;23.320;2023-08-20T02:28:00;28;27;
77699;PMS5003;66867;42.658;23.320;2023-08-20T02:29:00;26;26;
77699;PMS5003;66867;42.658;23.320;2023-08-20T02:30:00;25;25;
77699;PMS5003;66867;42.658;23.320;2023-08-20T02:31:04;31;30;
77699;PMS5003;66867;42.658;23.320;2023-08-20T02:32:00;31;30;
77699;PMS5003;66867;42.658;23.320;2023-08-20T02:33:00;32;29;
77699;PMS5003;66867;42.658;23.320;2023-08-20T02:34:00;28;28;
77699;PMS5003;66867;42.658;23.320;2023-08-20T02:35:00;33;30;
77699;PMS5003;66867;42.658;23.320;2023-08-20T02:36:01;30;30;
77699;PMS5003;66867;42.658;23.320;2023-08-20T02:37:00;26;25;
77699;PMS5003;66867;42.658;23.320;2023-08-20T02:38:00;26;26;
77699;PMS5003;66867;42.658;23.320;2023-08-20T02:39:00;29;28;
77699;PMS5003;66867;42.658;23.320;2023-08-20T02:40:00;27;26;
77699;PMS5003;66867;42.658;23.320;2023-08-20T02:41:01;29;28;
77699;PMS5003;66867;42.658;23.320;2023-08-20T02:42:00;28;25;
77699;PMS5003;66867;42.658;23.320;2023-08-20T02:43:00;30;28;
77699;PMS5003;66867;42.658;23.320;2023-08-20T02:44:00;26;26;
77699;PMS5003;66867;42.658;23.320;2023-08-20T02:45:00;28;27;
77699;PMS5003;66867;42.658;23.320;2023-08-20T02:46:00;28;27;
77699;PMS5003;66867;42.658;23.320;2023-08-20T02:47:00;25;24;
77699;PMS5003;66867;42.658;23.320;2023-08-20T02:48:00;31;30;
77699;PMS5003;66867;42.658;23.320;2023-08-20T02:49:00;31;29;
77699;PMS5003;66867;42.658;23.320;2023-08-20T02:50:00;30;30;
77699;PMS5003;66867;42.658;23.320;2023-08-20T02:51:00;29;28;
77699;PMS5003;66867;42.658;23.320;2023-08-20T02:52:00;29;28;
77699;PMS5003;66867;42.658;23.320;2023-08-20T02:53:00;28;28;
77699;PMS5003;66867;42.658;23.320;2023-08-20T02:54:00;29;29;
77699;PMS5003;66867;42.658;23.320;2023-08-20T02:55:00;27;27;
77699;PMS5003;66867;42.658;23.320;2023-08-20T02:56:00;28;27;
77699;PMS5003;66867;42.658;23.320;2023-08-20T02:57:00;30;28;
77699;PMS5003;66867;42.658;23.320;2023-08-20T02:58:01;28;27;
77699;PMS5003;66867;42.658;23.320;2023-08-20T02:59:00;26;26;
77699;PMS5003;66867;42.658;23.320;2023-08-20T03:00:00;32;30;
77699;PMS5003;66867;42.658;23.320;2023-08-20T03:01:00;28;28;
77699;PMS5003;66867;42.658;23.320;2023-08-20T03:02:00;29;29;
77699;PMS5003;66867;42.658;23.320;2023-08-20T03:03:00;28;28;
77699;PMS5003;66867;42.658;23.320;2023-08-20T03:04:00;27;27;
77699;PMS5003;66867;42.658;23.320;2023-08-20T03:05:00;25;25;
77699;PMS5003;66867;42.658;23.320;2023-08-20T03:06:00;30;29;
77699;PMS5003;66867;42.658;23.320;2023-08-20T03:07:00;30;30;
77699;PMS5003;66867;42.658;23.320;2023-08-20T03:08:00;27;27;
77699;PMS5003;66867;42.658;23.320;2023-08-20T03:09:00;29;28;
77699;PMS5003;66867;42.658;23.320;2023-08-20T03:10:00;30;29;
77699;PMS5003;66867;42.658;23.320;2023-08-20T03:11:00;27;27;
77699;PMS5003;66867;42.658;23.320;2023-08-20T03:12:00;29;28;
77699;PMS5003;66867;42.658;23.320;2023-08-20T03:13:02;30;30;
77699;PMS5003;66867;42.658;23.320;2023-08-20T03:14:00;27;27;
77699;PMS5003;66867;42.658;23.320;2023-08-20T03:15:00;27;26;
77699;PMS5003;66867;42.658;23.320;2023-08-20T03:16:00;27;26;
77699;PMS5003;66867;42.658;23.320;2023-08-20T03:17:00;28;27;
77699;PMS5003;66867;42.658;23.320;2023-08-20T03:18:00;28;27;
77699;PMS5003;66867;42.658;23.320;2023-08-20T03:19:00;29;27;
77699;PMS5003;66867;42.658;23.320;2023-08-20T03:20:01;30;29;
77699;PMS5003;66867;42.658;23.320;2023-08-20T03:21:00;28;27;
77699;PMS5003;66867;42.658;23.320;2023-08-20T03:22:00;26;26;
77699;PMS5003;66867;42.658;23.320;2023-08-20T03:23:00;27;27;
77699;PMS5003;66867;42.658;23.320;2023-08-20T03:24:00;29;28;
77699;PMS5003;66867;42.658;23.320;2023-08-20T03:25:00;25;25;
77699;PMS5003;66867;42.658;23.320;2023-08-20T03:26:00;26;25;
77699;PMS5003;66867;42.658;23.320;2023-08-20T03:27:00;30;30;
77699;PMS5003;66867;42.658;23.320;2023-08-20T03:28:00;31;27;
77699;PMS5003;66867;42.658;23.320;2023-08-20T03:29:00;25;24;
77699;PMS5003;66867;42.658;23.320;2023-08-20T03:30:01;26;26;
77699;PMS5003;66867;42.658;23.320;2023-08-20T03:31:00;28;28;
77699;PMS5003;66867;42.658;23.320;2023-08-20T03:32:00;26;26;
77699;PMS5003;66867;42.658;23.320;2023-08-20T03:33:00;26;25;
77699;PMS5003;66867;42.658;23.320;2023-08-20T03:34:00;25;24;
77699;PMS5003;66867;42.658;23.320;2023-08-20T03:35:00;33;30;
77699;PMS5003;66867;42.658;23.320;2023-08-20T03:36:00;29;29;
77699;PMS5003;66867;42.658;23.320;2023-08-20T03:37:01;30;29;
77699;PMS5003;66867;42.658;23.320;2023-08-20T03:38:00;28;28;
77699;PMS5003;66867;42.658;23.320;2023-08-20T03:39:00;25;24;
77699;PMS5003;66867;42.658;23.320;2023-08-20T03:40:00;26;26;
77699;PMS5003;66867;42.658;23.320;2023-08-20T03:41:00;28;27;
77699;PMS5003;66867;42.658;23.320;2023-08-20T03:42:00;30;30;
77699;PMS5003;66867;42.658;23.320;2023-08-20T03:43:00;27;27;
77699;PMS5003;66867;42.658;23.320;2023-08-20T03:44:00;24;24;
77699;PMS5003;66867;42.658;23.320;2023-08-20T03:45:00;29;29;
77699;PMS5003;66867;42.658;23.320;2023-08-20T03:46:01;30;30;
77699;PMS5003;66867;42.658;23.320;2023-08-20T03:47:00;27;26;
77699;PMS5003;66867;42.658;23.320;2023-08-20T03:48:00;28;28;
77699;PMS5003;66867;42.658;23.320;2023-08-20T03:49:00;27;27;
77699;PMS5003;66867;42.658;23.320;2023-08-20T03:50:00;28;27;
77699;PMS5003;66867;42.658;23.320;2023-08-20T03:51:00;26;25;
77699;PMS5003;66867;42.658;23.320;2023-08-20T03:52:00;31;30;
77699;PMS5003;66867;42.658;23.320;2023-08-20T03:53:00;25;25;
77699;PMS5003;66867;42.658;23.320;2023-08-20T03:54:00;29;28;
77699;PMS5003;66867;42.658;23.320;2023-08-20T03:55:00;28;28;
77699;PMS5003;66867;42.658;23.320;2023-08-20T03:56:00;30;29;
77699;PMS5003;66867;42.658;23.320;2023-08-20T03:57:00;26;26;
77699;PMS5003;66867;42.658;23.320;2023-08-20T03:58:00;28;27;
77699;PMS5003;66867;42.658;23.320;2023-08-20T03:59:01;33;30;
77699;PMS5003;66867;42.658;23.320;2023-08-20T04:00:00;32;30;
77699;PMS5003;66867;42.658;23.320;2023-08-20T04:01:00;29;29;
77699;PMS5003;66867;42.658;23.320;2023-08-20T04:02:00;30;29;
77699;PMS5003;66867;42.658;23.320;2023-08-20T04:03:00;30;28;
77699;PMS5003;66867;42.658;23.320;2023-08-20T04:04:00;28;28;
77699;PMS5003;66867;42.658;23.320;2023-08-20T04:05:00;29;29;
77699;PMS5003;66867;42.658;23.320;2023-08-20T04:06:00;30;28;
77699;PMS5003;66867;42.658;23.320;2023-08-20T04:07:00;27;25;
77699;PMS5003;66867;42.658;23.320;2023-08-20T04:08:00;27;27;
77699;PMS5003;66867;42.658;23.320;2023-08-20T04:09:00;30;29;
77699;PMS5003;66867;42.658;23.320;2023-08-20T04:10:00;28;28;
77699;PMS5003;66867;42.658;23.320;2023-08-20T04:11:00;29;29;
77699;PMS5003;66867;42.658;23.320;2023-08-20T04:12:00;28;27;
77699;PMS5003;66867;42.658;23.320;2023-08-20T04:13:00;31;30;
77699;PMS5003;66867;42.658;23.320;2023-08-20T04:14:00;31;29;
77699;PMS5003;66867;42.658;23.320;2023-08-20T04:15:00;30;30;
77699;PMS5003;66867;42.658;23.320;2023-08-20T04:16:00;26;26;
77699;PMS5003;66867;42.658;23.320;2023-08-20T04:17:00;29;27;
77699;PMS5003;66867;42.658;23.320;2023-08-20T04:18:00;27;25;
77699;PMS5003;66867;42.658;23.320;2023-08-20T04:19:00;28;28;
77699;PMS5003;66867;42.658;23.320;2023-08-20T04:20:00;28;27;
77699;PMS5003;66867;42.658;23.320;2023-08-20T04:21:00;27;26;
77699;PMS5003;66867;42.658;23.320;2023-08-20T04:22:00;26;26;
77699;PMS5003;66867;42.658;23.320;2023-08-20T04:23:00;28;27;
77699;PMS5003;66867;42.658;23.320;2023-08-20T04:24:00;29;29;
77699;PMS5003;66867;42.658;23.320;2023-08-20T04:25:00;27;26;
77699;PMS5003;66867;42.658;23.320;2023-08-20T04:26:00;32;31;
77699;PMS5003;66867;42.658;23.320;2023-08-20T04:27:00;30;29;
77699;PMS5003;66867;42.658;23.320;2023-08-20T04:28:00;30;29;
77699;PMS5003;66867;42.658;23.320;2023-08-20T04:29:00;29;28;
77699;PMS5003;66867;42.658;23.320;2023-08-20T04:30:00;29;27;
77699;PMS5003;66867;42.658;23.320;2023-08-20T04:31:00;36;31;
77699;PMS5003;66867;42.658;23.320;2023-08-20T04:32:00;35;31;
77699;PMS5003;66867;42.658;23.320;2023-08-20T04:33:00;30;29;
77699;PMS5003;66867;42.658;23.320;2023-08-20T04:34:00;25;24;
77699;PMS5003;66867;42.658;23.320;2023-08-20T04:35:00;25;24;
77699;PMS5003;66867;42.658;23.320;2023-08-20T04:36:00;28;26;
77699;PMS5003;66867;42.658;23.320;2023-08-20T04:37:00;27;27;
77699;PMS5003;66867;42.658;23.320;2023-08-20T04:38:01;29;28;
77699;PMS5003;66867;42.658;23.320;2023-08-20T04:39:00;26;26;
77699;PMS5003;66867;42.658;23.320;2023-08-20T04:40:00;28;27;
77699;PMS5003;66867;42.658;23.320;2023-08-20T04:41:00;29;28;
77699;PMS5003;66867;42.658;23.320;2023-08-20T04:42:00;32;29;
77699;PMS5003;66867;42.658;23.320;2023-08-20T04:43:00;28;27;
77699;PMS5003;66867;42.658;23.320;2023-08-20T04:44:00;28;25;
77699;PMS5003;66867;42.658;23.320;2023-08-20T04:45:00;29;29;
77699;PMS5003;66867;42.658;23.320;2023-08-20T04:46:00;27;26;
77699;PMS5003;66867;42.658;23.320;2023-08-20T04:47:00;26;26;
77699;PMS5003;66867;42.658;23.320;2023-08-20T04:48:00;25;25;
77699;PMS5003;66867;42.658;23.320;2023-08-20T04:49:00;25;25;
77699;PMS5003;66867;42.658;23.320;2023-08-20T04:50:00;27;26;
77699;PMS5003;66867;42.658;23.320;2023-08-20T04:51:00;32;29;
77699;PMS5003;66867;42.658;23.320;2023-08-20T04:52:00;26;23;
77699;PMS5003;66867;42.658;23.320;2023-08-20T04:53:00;27;26;
77699;PMS5003;66867;42.658;23.320;2023-08-20T04:54:00;25;25;
77699;PMS5003;66867;42.658;23.320;2023-08-20T04:55:01;26;26;
77699;PMS5003;66867;42.658;23.320;2023-08-20T04:56:00;27;25;
77699;PMS5003;66867;42.658;23.320;2023-08-20T04:57:00;28;28;
77699;PMS5003;66867;42.658;23.320;2023-08-20T04:58:00;30;30;
77699;PMS5003;66867;42.658;23.320;2023-08-20T04:59:00;26;25;
77699;PMS5003;66867;42.658;23.320;2023-08-20T05:00:00;27;27;
77699;PMS5003;66867;42.658;23.320;2023-08-20T05:01:00;27;27;
77699;PMS5003;66867;42.658;23.320;2023-08-20T05:02:00;25;25;
77699;PMS5003;66867;42.658;23.320;2023-08-20T05:03:00;26;26;
77699;PMS5003;66867;42.658;23.320;2023-08-20T05:04:00;28;27;
77699;PMS5003;66867;42.658;23.320;2023-08-20T05:05:02;25;24;
77699;PMS5003;66867;42.658;23.320;2023-08-20T05:06:00;30;28;
77699;PMS5003;66867;42.658;23.320;2023-08-20T05:07:00;26;26;
77699;PMS5003;66867;42.658;23.320;2023-08-20T05:08:00;32;29;
77699;PMS5003;66867;42.658;23.320;2023-08-20T05:09:00;28;28;
77699;PMS5003;66867;42.658;23.320;2023-08-20T05:10:00;26;26;
77699;PMS5003;66867;42.658;23.320;2023-08-20T05:11:00;26;26;
77699;PMS5003;66867;42.658;23.320;2023-08-20T05:12:00;30;29;
77699;PMS5003;66867;42.658;23.320;2023-08-20T05:13:00;27;25;
77699;PMS5003;66867;42.658;23.320;2023-08-20T05:14:00;29;29;
77699;PMS5003;66867;42.658;23.320;2023-08-20T05:15:00;30;29;
77699;PMS5003;66867;42.658;23.320;2023-08-20T05:16:00;29;29;
77699;PMS5003;66867;42.658;23.320;2023-08-20T05:17:00;30;29;
77699;PMS5003;66867;42.658;23.320;2023-08-20T05:18:00;28;27;
77699;PMS5003;66867;42.658;23.320;2023-08-20T05:19:00;26;26;
77699;PMS5003;66867;42.658;23.320;2023-08-20T05:20:00;31;29;
77699;PMS5003;66867;42.658;23.320;2023-08-20T05:21:00;29;28;
77699;PMS5003;66867;42.658;23.320;2023-08-20T05:22:00;35;32;
77699;PMS5003;66867;42.658;23.320;2023-08-20T05:23:00;34;32;
77699;PMS5003;66867;42.658;23.320;2023-08-20T05:24:00;27;25;
77699;PMS5003;66867;42.658;23.320;2023-08-20T05:25:00;27;27;
77699;PMS5003;66867;42.658;23.320;2023-08-20T05:26:00;29;28;
77699;PMS5003;66867;42.658;23.320;2023-08-20T05:28:00;27;26;
77699;PMS5003;66867;42.658;23.320;2023-08-20T05:29:00;31;29;
77699;PMS5003;66867;42.658;23.320;2023-08-20T05:30:00;38;33;
77699;PMS5003;66867;42.658;23.320;2023-08-20T05:31:00;31;29;
77699;PMS5003;66867;42.658;23.320;2023-08-20T05:32:00;27;27;
77699;PMS5003;66867;42.658;23.320;2023-08-20T05:33:00;34;30;
77699;PMS5003;66867;42.658;23.320;2023-08-20T05:34:00;28;27;
77699;PMS5003;66867;42.658;23.320;2023-08-20T05:35:01;28;28;
77699;PMS5003;66867;42.658;23.320;2023-08-20T05:36:00;32;31;
77699;PMS5003;66867;42.658;23.320;2023-08-20T05:37:00;30;29;
77699;PMS5003;66867;42.658;23.320;2023-08-20T05:38:00;27;27;
77699;PMS5003;66867;42.658;23.320;2023-08-20T05:39:00;29;29;
77699;PMS5003;66867;42.658;23.320;2023-08-20T05:40:00;32;31;
77699;PMS5003;66867;42.658;23.320;2023-08-20T05:41:00;30;29;
77699;PMS5003;66867;42.658;23.320;2023-08-20T05:42:00;27;26;
77699;PMS5003;66867;42.658;23.320;2023-08-20T05:43:00;27;26;
77699;PMS5003;66867;42.658;23.320;2023-08-20T05:44:00;23;23;
77699;PMS5003;66867;42.658;23.320;2023-08-20T05:45:00;24;24;
77699;PMS5003;66867;42.658;23.320;2023-08-20T05:46:00;27;27;
77699;PMS5003;66867;42.658;23.320;2023-08-20T05:47:00;27;27;
77699;PMS5003;66867;42.658;23.320;2023-08-20T05:48:00;25;24;
77699;PMS5003;66867;42.658;23.320;2023-08-20T05:49:00;27;26;
77699;PMS5003;66867;42.658;23.320;2023-08-20T05:50:00;26;25;
77699;PMS5003;66867;42.658;23.320;2023-08-20T05:51:00;26;26;
77699;PMS5003;66867;42.658;23.320;2023-08-20T05:52:00;28;25;
77699;PMS5003;66867;42.658;23.320;2023-08-20T05:53:00;24;24;
77699;PMS5003;66867;42.658;23.320;2023-08-20T05:54:00;23;23;
77699;PMS5003;66867;42.658;23.320;2023-08-20T05:55:00;26;26;
77699;PMS5003;66867;42.658;23.320;2023-08-20T05:56:00;26;26;
77699;PMS5003;66867;42.658;23.320;2023-08-20T05:57:00;32;29;
77699;PMS5003;66867;42.658;23.320;2023-08-20T05:58:00;27;26;
77699;PMS5003;66867;42.658;23.320;2023-08-20T05:59:00;29;28;
77699;PMS5003;66867;42.658;23.320;2023-08-20T06:00:00;27;27;
77699;PMS5003;66867;42.658;23.320;2023-08-20T06:01:00;25;24;
77699;PMS5003;66867;42.658;23.320;2023-08-20T06:02:01;28;28;
77699;PMS5003;66867;42.658;23.320;2023-08-20T06:03:00;27;27;
77699;PMS5003;66867;42.658;23.320;2023-08-20T06:04:00;28;28;
77699;PMS5003;66867;42.658;23.320;2023-08-20T06:05:00;30;28;
77699;PMS5003;66867;42.658;23.320;2023-08-20T06:06:00;32;30;
77699;PMS5003;66867;42.658;23.320;2023-08-20T06:07:00;27;27;
77699;PMS5003;66867;42.658;23.320;2023-08-20T06:08:00;29;28;
77699;PMS5003;66867;42.658;23.320;2023-08-20T06:09:00;30;28;
77699;PMS5003;66867;42.658;23.320;2023-08-20T06:10:00;28;28;
77699;PMS5003;66867;42.658;23.320;2023-08-20T06:11:00;30;29;
77699;PMS5003;66867;42.658;23.320;2023-08-20T06:12:00;25;25;
77699;PMS5003;66867;42.658;23.320;2023-08-20T06:13:00;32;29;
77699;PMS5003;66867;42.658;23.320;2023-08-20T06:14:00;27;26;
77699;PMS5003;66867;42.658;23.320;2023-08-20T06:15:00;32;30;
77699;PMS5003;66867;42.658;23.320;2023-08-20T06:16:00;29;29;
77699;PMS5003;66867;42.658;23.320;2023-08-20T06:17:00;29;28;
77699;PMS5003;66867;42.658;23.320;2023-08-20T06:18:00;33;31;
77699;PMS5003;66867;42.658;23.320;2023-08-20T06:19:00;29;28;
77699;PMS5003;66867;42.658;23.320;2023-08-20T06:20:00;30;29;
77699;PMS5003;66867;42.658;23.320;2023-08-20T06:21:00;32;31;
77699;PMS5003;66867;42.658;23.320;2023-08-20T06:22:00;30;29;
77699;PMS5003;66867;42.658;23.320;2023-08-20T06:23:00;28;27;
77699;PMS5003;66867;42.658;23.320;2023-08-20T06:24:00;25;25;
77699;PMS5003;66867;42.658;23.320;2023-08-20T06:25:00;28;27;
77699;PMS5003;66867;42.658;23.320;2023-08-20T06:26:00;30;29;
77699;PMS5003;66867;42.658;23.320;2023-08-20T06:27:00;28;28;
77699;PMS5003;66867;42.658;23.320;2023-08-20T06:28:00;30;29;
77699;PMS5003;66867;42.658;23.320;2023-08-20T06:29:00;26;26;
77699;PMS5003;66867;42.658;23.320;2023-08-20T06:30:00;29;28;
77699;PMS5003;66867;42.658;23.320;2023-08-20T06:31:00;24;23;
77699;PMS5003;66867;42.658;23.320;2023-08-20T06:32:00;26;25;
77699;PMS5003;66867;42.658;23.320;2023-08-20T06:33:00;23;22;
77699;PMS5003;66867;42.658;23.320;2023-08-20T06:34:00;24;24;
77699;PMS5003;66867;42.658;23.320;2023-08-20T06:35:00;27;27;
77699;PMS5003;66867;42.658;23.320;2023-08-20T06:36:00;24;23;